createdAt,value
2018-04-24T00:00:17.313Z,1010.39
2018-04-24T00:02:10.264Z,1010.36
2018-04-24T00:03:10.268Z,1010.37
2018-04-24T00:05:03.199Z,1010.38
2018-04-24T00:06:03.219Z,1010.35
2018-04-24T00:07:56.169Z,1010.33
2018-04-24T00:08:56.174Z,1010.31
2018-04-24T00:10:49.125Z,1010.28
2018-04-24T00:11:49.128Z,1010.30
2018-04-24T00:13:42.057Z,1010.34
2018-04-24T00:14:42.108Z,1010.33
2018-04-24T00:16:35.034Z,1010.34
2018-04-24T00:17:35.039Z,1010.30
2018-04-24T00:19:27.966Z,1010.36
2018-04-24T00:20:27.988Z,1010.35
2018-04-24T00:22:20.974Z,1010.31
2018-04-24T00:23:20.940Z,1010.29
2018-04-24T00:25:13.874Z,1010.37
2018-04-24T00:26:13.996Z,1010.36
2018-04-24T00:28:06.850Z,1010.32
2018-04-24T00:29:06.849Z,1010.31
2018-04-24T00:30:59.801Z,1010.22
2018-04-24T00:31:59.810Z,1010.18
2018-04-24T00:33:52.740Z,1010.13
2018-04-24T00:34:52.758Z,1010.15
2018-04-24T00:36:45.706Z,1010.09
2018-04-24T00:37:45.709Z,1010.07
2018-04-24T00:39:38.647Z,1010.03
2018-04-24T00:40:38.665Z,1010.00
2018-04-24T00:42:31.614Z,1010.00
2018-04-24T00:43:31.618Z,1009.99
2018-04-24T00:45:24.554Z,1010.04
2018-04-24T00:46:24.572Z,1010.02
2018-04-24T00:48:17.523Z,1009.99
2018-04-24T00:49:17.528Z,1010.00
2018-04-24T00:51:10.475Z,1010.00
2018-04-24T00:52:10.479Z,1010.00
2018-04-24T00:54:03.417Z,1010.02
2018-04-24T00:55:03.435Z,1010.04
2018-04-24T00:56:56.461Z,1010.08
2018-04-24T00:57:56.395Z,1010.04
2018-04-24T00:59:49.324Z,1010.00
2018-04-24T01:00:49.339Z,1009.99
2018-04-24T01:02:42.289Z,1009.93
2018-04-24T01:03:42.296Z,1009.90
2018-04-24T01:05:35.230Z,1009.88
2018-04-24T01:06:35.245Z,1009.85
2018-04-24T01:08:28.198Z,1009.80
2018-04-24T01:09:28.203Z,1009.85
2018-04-24T01:11:21.257Z,1009.89
2018-04-24T01:12:21.155Z,1009.86
2018-04-24T01:14:14.093Z,1009.82
2018-04-24T01:15:14.110Z,1009.85
2018-04-24T01:17:07.060Z,1009.89
2018-04-24T01:18:07.063Z,1009.88
2018-04-24T01:19:59.999Z,1009.89
2018-04-24T01:21:00.017Z,1009.86
2018-04-24T01:22:52.966Z,1009.81
2018-04-24T01:23:52.978Z,1009.84
2018-04-24T01:25:45.908Z,1009.81
2018-04-24T01:26:45.925Z,1009.79
2018-04-24T01:28:38.881Z,1009.82
2018-04-24T01:29:38.879Z,1009.87
2018-04-24T01:31:31.814Z,1009.87
2018-04-24T01:32:31.831Z,1009.89
2018-04-24T01:34:24.801Z,1009.86
2018-04-24T01:35:24.790Z,1009.81
2018-04-24T01:37:17.735Z,1009.78
2018-04-24T01:38:17.737Z,1009.74
2018-04-24T01:40:10.677Z,1009.75
2018-04-24T01:41:10.694Z,1009.74
2018-04-24T01:43:03.648Z,1009.79
2018-04-24T01:44:03.645Z,1009.77
2018-04-24T01:45:56.582Z,1009.75
2018-04-24T01:46:56.598Z,1009.75
2018-04-24T01:48:49.553Z,1009.80
2018-04-24T01:49:49.554Z,1009.83
2018-04-24T01:51:42.489Z,1009.87
2018-04-24T01:52:42.509Z,1009.81
2018-04-24T01:54:35.457Z,1009.73
2018-04-24T01:55:35.459Z,1009.72
2018-04-24T01:57:28.411Z,1009.69
2018-04-24T01:58:28.418Z,1009.65
2018-04-24T02:00:21.350Z,1009.57
2018-04-24T02:01:21.367Z,1009.57
2018-04-24T02:03:14.319Z,1009.56
2018-04-24T02:04:14.326Z,1009.58
2018-04-24T02:06:07.257Z,1009.62
2018-04-24T02:07:07.274Z,1009.64
2018-04-24T02:09:00.226Z,1009.74
2018-04-24T02:10:00.228Z,1009.69
2018-04-24T02:11:53.164Z,1009.64
2018-04-24T02:12:53.183Z,1009.70
2018-04-24T02:14:46.133Z,1009.77
2018-04-24T02:15:46.134Z,1009.80
2018-04-24T02:17:39.089Z,1009.81
2018-04-24T02:18:39.090Z,1009.77
2018-04-24T02:20:32.025Z,1009.74
2018-04-24T02:21:32.045Z,1009.71
2018-04-24T02:23:24.994Z,1009.65
2018-04-24T02:24:24.996Z,1009.61
2018-04-24T02:26:17.932Z,1009.61
2018-04-24T02:27:17.948Z,1009.58
2018-04-24T02:29:10.902Z,1009.54
2018-04-24T02:30:10.909Z,1009.63
2018-04-24T02:32:03.843Z,1009.63
2018-04-24T02:33:03.857Z,1009.61
2018-04-24T02:34:56.812Z,1009.58
2018-04-24T02:35:56.817Z,1009.62
2018-04-24T02:37:49.765Z,1009.70
2018-04-24T02:38:49.767Z,1009.67
2018-04-24T02:40:42.700Z,1009.74
2018-04-24T02:41:42.719Z,1009.76
2018-04-24T02:43:35.677Z,1009.76
2018-04-24T02:44:35.675Z,1009.73
2018-04-24T02:46:28.610Z,1009.64
2018-04-24T02:47:28.627Z,1009.66
2018-04-24T02:49:21.575Z,1009.63
2018-04-24T02:50:21.587Z,1009.60
2018-04-24T02:52:14.519Z,1009.65
2018-04-24T02:53:14.535Z,1009.64
2018-04-24T02:55:07.486Z,1009.57
2018-04-24T02:56:07.491Z,1009.52
2018-04-24T02:58:00.439Z,1009.50
2018-04-24T02:59:00.442Z,1009.52
2018-04-24T03:00:54.917Z,1009.55
2018-04-24T03:01:54.936Z,1009.53
2018-04-24T03:03:47.885Z,1009.46
2018-04-24T03:04:47.884Z,1009.41
2018-04-24T03:06:40.821Z,1009.41
2018-04-24T03:07:40.839Z,1009.38
2018-04-24T03:09:34.301Z,1009.39
2018-04-24T03:10:34.306Z,1009.32
2018-04-24T03:12:27.237Z,1009.33
2018-04-24T03:13:27.259Z,1009.35
2018-04-24T03:15:20.209Z,1009.30
2018-04-24T03:16:20.223Z,1009.27
2018-04-24T03:18:13.161Z,1009.22
2018-04-24T03:19:13.162Z,1009.27
2018-04-24T03:21:06.099Z,1009.42
2018-04-24T03:22:06.122Z,1009.43
2018-04-24T03:23:59.069Z,1009.43
2018-04-24T03:24:59.071Z,1009.42
2018-04-24T03:26:52.007Z,1009.39
2018-04-24T03:27:52.026Z,1009.34
2018-04-24T03:29:44.977Z,1009.35
2018-04-24T03:30:44.978Z,1009.36
2018-04-24T03:32:37.915Z,1009.36
2018-04-24T03:33:37.934Z,1009.35
2018-04-24T03:35:30.886Z,1009.33
2018-04-24T03:36:30.886Z,1009.34
2018-04-24T03:38:23.840Z,1009.38
2018-04-24T03:39:23.840Z,1009.37
2018-04-24T03:41:17.286Z,1009.36
2018-04-24T03:42:17.307Z,1009.33
2018-04-24T03:44:10.772Z,1009.32
2018-04-24T03:45:10.771Z,1009.34
2018-04-24T03:47:03.706Z,1009.34
2018-04-24T03:48:03.725Z,1009.37
2018-04-24T03:49:56.677Z,1009.41
2018-04-24T03:50:56.681Z,1009.39
2018-04-24T03:52:50.124Z,1009.44
2018-04-24T03:53:50.147Z,1009.54
2018-04-24T03:55:43.097Z,1009.49
2018-04-24T03:56:43.097Z,1009.46
2018-04-24T03:58:36.049Z,1009.37
2018-04-24T03:59:36.051Z,1009.39
2018-04-24T04:01:29.498Z,1009.39
2018-04-24T04:02:29.522Z,1009.49
2018-04-24T04:04:22.469Z,1009.46
2018-04-24T04:05:22.471Z,1009.44
2018-04-24T04:07:15.405Z,1009.41
2018-04-24T04:08:15.425Z,1009.43
2018-04-24T04:10:08.376Z,1009.40
2018-04-24T04:11:08.378Z,1009.38
2018-04-24T04:13:01.314Z,1009.40
2018-04-24T04:14:01.331Z,1009.41
2018-04-24T04:15:54.331Z,1009.47
2018-04-24T04:16:54.286Z,1009.42
2018-04-24T04:18:47.239Z,1009.40
2018-04-24T04:19:47.239Z,1009.42
2018-04-24T04:21:40.174Z,1009.47
2018-04-24T04:22:40.196Z,1009.47
2018-04-24T04:24:33.146Z,1009.57
2018-04-24T04:25:33.146Z,1009.61
2018-04-24T04:27:26.082Z,1009.69
2018-04-24T04:28:26.102Z,1009.69
2018-04-24T04:30:19.062Z,1009.71
2018-04-24T04:31:19.056Z,1009.68
2018-04-24T04:33:11.991Z,1009.69
2018-04-24T04:34:12.009Z,1009.69
2018-04-24T04:36:04.960Z,1009.75
2018-04-24T04:37:04.963Z,1009.73
2018-04-24T04:38:58.427Z,1009.69
2018-04-24T04:39:58.428Z,1009.72
2018-04-24T04:41:51.365Z,1009.74
2018-04-24T04:42:51.383Z,1009.73
2018-04-24T04:44:44.353Z,1009.72
2018-04-24T04:45:44.354Z,1009.69
2018-04-24T04:47:37.271Z,1009.69
2018-04-24T04:48:37.292Z,1009.69
2018-04-24T04:50:30.250Z,1009.68
2018-04-24T04:51:30.245Z,1009.67
2018-04-24T04:53:23.181Z,1009.70
2018-04-24T04:54:23.202Z,1009.74
2018-04-24T04:56:16.151Z,1009.68
2018-04-24T04:57:16.157Z,1009.67
2018-04-24T04:59:09.104Z,1009.65
2018-04-24T05:00:09.107Z,1009.66
2018-04-24T05:02:02.045Z,1009.59
2018-04-24T05:03:02.061Z,1009.58
2018-04-24T05:04:55.015Z,1009.59
2018-04-24T05:05:55.015Z,1009.61
2018-04-24T05:07:47.952Z,1009.66
2018-04-24T05:08:47.971Z,1009.64
2018-04-24T05:10:40.920Z,1009.71
2018-04-24T05:11:40.925Z,1009.76
2018-04-24T05:13:33.855Z,1009.76
2018-04-24T05:14:33.878Z,1009.77
2018-04-24T05:16:26.831Z,1009.80
2018-04-24T05:17:26.832Z,1009.84
2018-04-24T05:19:19.786Z,1009.83
2018-04-24T05:20:19.788Z,1009.83
2018-04-24T05:22:12.721Z,1009.86
2018-04-24T05:23:12.739Z,1009.91
2018-04-24T05:25:05.679Z,1009.97
2018-04-24T05:26:05.678Z,1010.00
2018-04-24T05:27:58.587Z,1010.00
2018-04-24T05:28:58.606Z,1010.06
2018-04-24T05:30:52.525Z,1009.98
2018-04-24T05:31:52.528Z,1009.98
2018-04-24T05:33:45.442Z,1009.93
2018-04-24T05:34:45.457Z,1009.93
2018-04-24T05:36:38.876Z,1009.92
2018-04-24T05:37:38.882Z,1009.94
2018-04-24T05:39:31.805Z,1009.95
2018-04-24T05:40:31.808Z,1010.00
2018-04-24T05:42:25.208Z,1009.99
2018-04-24T05:43:25.228Z,1010.04
2018-04-24T05:45:18.179Z,1010.00
2018-04-24T05:46:18.156Z,1009.99
2018-04-24T05:48:11.063Z,1009.97
2018-04-24T05:49:11.086Z,1009.94
2018-04-24T05:51:04.012Z,1009.95
2018-04-24T05:52:04.013Z,1010.03
2018-04-24T05:53:56.924Z,1009.96
2018-04-24T05:54:56.947Z,1009.99
2018-04-24T05:56:49.874Z,1009.96
2018-04-24T05:57:49.973Z,1009.93
2018-04-24T05:59:42.805Z,1009.97
2018-04-24T06:00:42.809Z,1009.96
2018-04-24T06:02:35.713Z,1009.95
2018-04-24T06:03:35.735Z,1009.98
2018-04-24T06:05:28.661Z,1010.03
2018-04-24T06:06:28.665Z,1009.99
2018-04-24T06:08:21.636Z,1010.08
2018-04-24T06:09:21.588Z,1010.07
2018-04-24T06:11:14.518Z,1010.02
2018-04-24T06:12:14.527Z,1010.07
2018-04-24T06:14:07.433Z,1010.07
2018-04-24T06:15:07.461Z,1010.01
2018-04-24T06:17:00.375Z,1009.96
2018-04-24T06:18:00.379Z,1009.98
2018-04-24T06:19:53.320Z,1009.94
2018-04-24T06:20:53.317Z,1009.94
2018-04-24T06:22:46.715Z,1009.91
2018-04-24T06:23:46.737Z,1009.86
2018-04-24T06:25:39.668Z,1009.92
2018-04-24T06:26:39.674Z,1009.87
2018-04-24T06:28:32.622Z,1009.85
2018-04-24T06:29:32.597Z,1009.81
2018-04-24T06:31:25.526Z,1009.81
2018-04-24T06:32:25.536Z,1009.83
2018-04-24T06:34:18.435Z,1009.82
2018-04-24T06:35:18.456Z,1009.87
2018-04-24T06:37:11.386Z,1009.86
2018-04-24T06:38:11.387Z,1009.85
2018-04-24T06:40:04.318Z,1009.81
2018-04-24T06:41:04.316Z,1009.85
2018-04-24T06:42:57.223Z,1009.85
2018-04-24T06:43:57.242Z,1009.92
2018-04-24T06:45:50.245Z,1009.88
2018-04-24T06:46:50.244Z,1009.93
2018-04-24T06:48:43.179Z,1009.93
2018-04-24T06:49:43.205Z,1009.94
2018-04-24T06:51:36.659Z,1009.90
2018-04-24T06:52:36.663Z,1009.91
2018-04-24T06:54:30.107Z,1009.84
2018-04-24T06:55:30.128Z,1009.78
2018-04-24T06:57:23.081Z,1009.75
2018-04-24T06:58:23.085Z,1009.72
2018-04-24T07:00:16.034Z,1009.80
2018-04-24T07:01:16.036Z,1009.83
2018-04-24T07:03:08.976Z,1009.80
2018-04-24T07:04:08.994Z,1009.84
2018-04-24T07:06:01.945Z,1009.83
2018-04-24T07:07:01.949Z,1009.82
2018-04-24T07:08:54.884Z,1009.89
2018-04-24T07:09:54.899Z,1009.91
2018-04-24T07:11:47.851Z,1010.03
2018-04-24T07:12:47.856Z,1010.06
2018-04-24T07:14:40.785Z,1010.14
2018-04-24T07:15:40.806Z,1010.16
2018-04-24T07:17:33.758Z,1010.22
2018-04-24T07:18:33.762Z,1010.21
2018-04-24T07:20:27.108Z,1010.21
2018-04-24T07:21:27.111Z,1010.23
2018-04-24T07:23:20.057Z,1010.29
2018-04-24T07:24:20.078Z,1010.27
2018-04-24T07:26:13.029Z,1010.29
2018-04-24T07:27:13.048Z,1010.26
2018-04-24T07:29:05.970Z,1010.26
2018-04-24T07:30:05.988Z,1010.25
2018-04-24T07:31:58.939Z,1010.33
2018-04-24T07:32:58.984Z,1010.34
2018-04-24T07:34:51.872Z,1010.32
2018-04-24T07:35:51.892Z,1010.29
2018-04-24T07:37:45.353Z,1010.28
2018-04-24T07:38:45.357Z,1010.29
2018-04-24T07:40:38.825Z,1010.28
2018-04-24T07:41:38.830Z,1010.34
2018-04-24T07:43:31.759Z,1010.21
2018-04-24T07:44:31.778Z,1010.20
2018-04-24T07:46:24.729Z,1010.30
2018-04-24T07:47:24.732Z,1010.31
2018-04-24T07:49:17.672Z,1010.42
2018-04-24T07:50:17.684Z,1010.48
2018-04-24T07:52:10.640Z,1010.44
2018-04-24T07:53:10.641Z,1010.44
2018-04-24T07:55:03.582Z,1010.43
2018-04-24T07:56:03.597Z,1010.43
2018-04-24T07:57:56.543Z,1010.41
2018-04-24T07:58:56.546Z,1010.36
2018-04-24T08:00:49.500Z,1010.37
2018-04-24T08:01:49.516Z,1010.33
2018-04-24T08:03:42.436Z,1010.40
2018-04-24T08:04:42.455Z,1010.37
2018-04-24T08:06:35.411Z,1010.42
2018-04-24T08:07:35.419Z,1010.40
2018-04-24T08:09:28.344Z,1010.41
2018-04-24T08:10:28.363Z,1010.44
2018-04-24T08:12:21.313Z,1010.43
2018-04-24T08:13:21.317Z,1010.43
2018-04-24T08:15:14.251Z,1010.46
2018-04-24T08:16:14.270Z,1010.47
2018-04-24T08:18:07.222Z,1010.42
2018-04-24T08:19:07.227Z,1010.45
2018-04-24T08:21:00.175Z,1010.49
2018-04-24T08:22:00.180Z,1010.51
2018-04-24T08:23:53.112Z,1010.56
2018-04-24T08:24:53.133Z,1010.55
2018-04-24T08:26:46.084Z,1010.54
2018-04-24T08:27:46.091Z,1010.56
2018-04-24T08:29:39.018Z,1010.53
2018-04-24T08:30:39.043Z,1010.46
2018-04-24T08:32:32.503Z,1010.46
2018-04-24T08:33:32.518Z,1010.46
2018-04-24T08:35:25.441Z,1010.42
2018-04-24T08:36:25.463Z,1010.40
2018-04-24T08:38:18.411Z,1010.45
2018-04-24T08:39:18.415Z,1010.40
2018-04-24T08:41:11.368Z,1010.39
2018-04-24T08:42:11.371Z,1010.36
2018-04-24T08:44:04.304Z,1010.39
2018-04-24T08:45:04.327Z,1010.38
2018-04-24T08:46:57.274Z,1010.50
2018-04-24T08:47:57.352Z,1010.51
2018-04-24T08:49:50.210Z,1010.51
2018-04-24T08:50:50.233Z,1010.48
2018-04-24T08:52:43.183Z,1010.51
2018-04-24T08:53:43.192Z,1010.48
2018-04-24T08:55:36.123Z,1010.44
2018-04-24T08:56:36.137Z,1010.47
2018-04-24T08:58:29.093Z,1010.59
2018-04-24T08:59:29.095Z,1010.53
2018-04-24T09:01:22.047Z,1010.54
2018-04-24T09:02:22.049Z,1010.57
2018-04-24T09:04:15.492Z,1010.57
2018-04-24T09:05:15.514Z,1010.54
2018-04-24T09:07:08.975Z,1010.55
2018-04-24T09:08:08.979Z,1010.55
2018-04-24T09:10:01.912Z,1010.57
2018-04-24T09:11:01.932Z,1010.66
2018-04-24T09:12:54.889Z,1010.78
2018-04-24T09:13:54.886Z,1010.75
2018-04-24T09:15:47.819Z,1010.72
2018-04-24T09:16:47.842Z,1010.66
2018-04-24T09:18:40.789Z,1010.64
2018-04-24T09:19:40.793Z,1010.64
2018-04-24T09:21:33.748Z,1010.65
2018-04-24T09:22:33.750Z,1010.58
2018-04-24T09:24:26.676Z,1010.59
2018-04-24T09:25:26.701Z,1010.56
2018-04-24T09:27:19.649Z,1010.47
2018-04-24T09:28:19.654Z,1010.45
2018-04-24T09:30:13.097Z,1010.41
2018-04-24T09:31:13.120Z,1010.49
2018-04-24T09:33:06.178Z,1010.40
2018-04-24T09:34:06.176Z,1010.46
2018-04-24T09:35:59.109Z,1010.49
2018-04-24T09:36:59.130Z,1010.53
2018-04-24T09:38:52.078Z,1010.53
2018-04-24T09:39:52.083Z,1010.49
2018-04-24T09:41:45.551Z,1010.48
2018-04-24T09:42:45.554Z,1010.48
2018-04-24T09:44:38.481Z,1010.48
2018-04-24T09:45:38.504Z,1010.50
2018-04-24T09:47:31.459Z,1010.55
2018-04-24T09:48:31.463Z,1010.56
2018-04-24T09:50:24.387Z,1010.49
2018-04-24T09:51:24.482Z,1010.50
2018-04-24T09:53:17.361Z,1010.52
2018-04-24T09:54:17.367Z,1010.50
2018-04-24T09:56:10.807Z,1010.49
2018-04-24T09:57:10.833Z,1010.48
2018-04-24T09:59:03.870Z,1010.48
2018-04-24T10:00:03.785Z,1010.44
2018-04-24T10:01:56.733Z,1010.55
2018-04-24T10:02:56.731Z,1010.61
2018-04-24T10:04:49.648Z,1010.57
2018-04-24T10:05:49.673Z,1010.57
2018-04-24T10:07:42.612Z,1010.71
2018-04-24T10:08:42.609Z,1010.74
2018-04-24T10:10:35.525Z,1010.71
2018-04-24T10:11:35.551Z,1010.72
2018-04-24T10:13:29.000Z,1010.73
2018-04-24T10:14:28.984Z,1010.72
2018-04-24T10:16:21.905Z,1010.76
2018-04-24T10:17:21.924Z,1010.80
2018-04-24T10:19:14.863Z,1010.84
2018-04-24T10:20:14.870Z,1010.89
2018-04-24T10:22:07.799Z,1010.89
2018-04-24T10:23:07.809Z,1010.90
2018-04-24T10:25:00.719Z,1010.84
2018-04-24T10:26:00.747Z,1010.79
2018-04-24T10:27:53.676Z,1010.79
2018-04-24T10:28:53.685Z,1010.70
2018-04-24T10:30:46.594Z,1010.65
2018-04-24T10:31:46.622Z,1010.63
2018-04-24T10:33:39.548Z,1010.62
2018-04-24T10:34:39.553Z,1010.64
2018-04-24T10:36:32.466Z,1010.66
2018-04-24T10:37:32.513Z,1010.62
2018-04-24T10:39:25.428Z,1010.65
2018-04-24T10:40:25.430Z,1010.64
2018-04-24T10:42:18.354Z,1010.70
2018-04-24T10:43:18.358Z,1010.64
2018-04-24T10:45:11.273Z,1010.61
2018-04-24T10:46:11.295Z,1010.63
2018-04-24T10:48:04.290Z,1010.63
2018-04-24T10:49:04.312Z,1010.69
2018-04-24T10:50:57.152Z,1010.65
2018-04-24T10:51:57.182Z,1010.61
2018-04-24T10:53:50.114Z,1010.52
2018-04-24T10:54:50.120Z,1010.58
2018-04-24T10:56:43.030Z,1010.53
2018-04-24T10:57:43.051Z,1010.50
2018-04-24T10:59:35.982Z,1010.47
2018-04-24T11:00:36.068Z,1010.49
2018-04-24T11:02:28.920Z,1010.51
2018-04-24T11:03:28.930Z,1010.43
2018-04-24T11:05:21.840Z,1010.45
2018-04-24T11:06:21.871Z,1010.41
2018-04-24T11:08:14.800Z,1010.42
2018-04-24T11:09:14.799Z,1010.44
2018-04-24T11:11:08.712Z,1010.47
2018-04-24T11:12:08.737Z,1010.50
2018-04-24T11:14:01.673Z,1010.52
2018-04-24T11:16:15.077Z,1010.54
2018-04-24T11:17:15.099Z,1010.46
2018-04-24T11:19:08.033Z,1010.49
2018-04-24T11:20:08.045Z,1010.43
2018-04-24T11:22:00.954Z,1010.40
2018-04-24T11:23:00.984Z,1010.42
2018-04-24T11:24:53.915Z,1010.44
2018-04-24T11:25:53.923Z,1010.44
2018-04-24T11:27:46.861Z,1010.35
2018-04-24T11:28:46.865Z,1010.44
2018-04-24T11:30:39.783Z,1010.49
2018-04-24T11:31:39.811Z,1010.44
2018-04-24T11:33:32.753Z,1010.46
2018-04-24T11:34:32.842Z,1010.45
2018-04-24T11:36:25.676Z,1010.45
2018-04-24T11:37:25.707Z,1010.46
2018-04-24T11:39:18.649Z,1010.50
2018-04-24T11:40:18.653Z,1010.49
2018-04-24T11:42:11.569Z,1010.54
2018-04-24T11:43:11.596Z,1010.60
2018-04-24T11:45:04.551Z,1010.54
2018-04-24T11:46:04.538Z,1010.52
2018-04-24T11:47:57.470Z,1010.53
2018-04-24T11:48:57.476Z,1010.57
2018-04-24T11:50:50.399Z,1010.59
2018-04-24T11:51:50.425Z,1010.58
2018-04-24T11:53:43.359Z,1010.61
2018-04-24T11:54:43.370Z,1010.57
2018-04-24T11:56:36.285Z,1010.56
2018-04-24T11:57:36.314Z,1010.61
2018-04-24T11:59:29.248Z,1010.67
2018-04-24T12:00:29.256Z,1010.66
2018-04-24T12:02:22.184Z,1010.72
2018-04-24T12:03:22.208Z,1010.73
2018-04-24T12:05:15.148Z,1010.75
2018-04-24T12:06:15.153Z,1010.78
2018-04-24T12:08:08.102Z,1010.84
2018-04-24T12:09:08.102Z,1010.83
2018-04-24T12:11:01.022Z,1010.85
2018-04-24T12:12:01.046Z,1010.84
2018-04-24T12:13:53.991Z,1010.83
2018-04-24T12:14:53.991Z,1010.84
2018-04-24T12:16:46.905Z,1010.82
2018-04-24T12:17:46.938Z,1010.82
2018-04-24T12:19:39.865Z,1010.85
2018-04-24T12:20:39.875Z,1010.87
2018-04-24T12:22:32.790Z,1010.88
2018-04-24T12:23:32.856Z,1010.89
2018-04-24T12:25:25.760Z,1010.82
2018-04-24T12:26:25.759Z,1010.84
2018-04-24T12:28:18.707Z,1010.89
2018-04-24T12:29:18.713Z,1010.88
2018-04-24T12:31:11.630Z,1010.92
2018-04-24T12:32:11.655Z,1010.91
2018-04-24T12:34:04.680Z,1010.94
2018-04-24T12:35:04.686Z,1010.91
2018-04-24T12:36:57.618Z,1010.91
2018-04-24T12:37:57.641Z,1010.93
2018-04-24T12:39:50.589Z,1010.89
2018-04-24T12:40:50.598Z,1010.88
2018-04-24T12:42:43.527Z,1010.85
2018-04-24T12:43:43.550Z,1010.81
2018-04-24T12:45:36.484Z,1010.78
2018-04-24T12:46:36.494Z,1010.72
2018-04-24T12:48:29.923Z,1010.70
2018-04-24T12:49:29.966Z,1010.65
2018-04-24T12:51:22.859Z,1010.64
2018-04-24T12:52:22.872Z,1010.71
2018-04-24T12:54:15.798Z,1010.70
2018-04-24T12:55:15.808Z,1010.67
2018-04-24T12:57:08.722Z,1010.66
2018-04-24T12:58:08.748Z,1010.64
2018-04-24T13:00:01.683Z,1010.62
2018-04-24T13:01:01.688Z,1010.57
2018-04-24T13:02:54.605Z,1010.61
2018-04-24T13:03:54.722Z,1010.54
2018-04-24T13:05:47.574Z,1010.56
2018-04-24T13:06:47.582Z,1010.49
2018-04-24T13:08:40.601Z,1010.47
2018-04-24T13:09:40.530Z,1010.48
2018-04-24T13:11:33.439Z,1010.53
2018-04-24T13:12:33.472Z,1010.53
2018-04-24T13:14:26.400Z,1010.55
2018-04-24T13:15:26.411Z,1010.57
2018-04-24T13:17:19.326Z,1010.56
2018-04-24T13:18:19.413Z,1010.52
2018-04-24T13:20:12.340Z,1010.60
2018-04-24T13:21:12.356Z,1010.62
2018-04-24T13:23:05.211Z,1010.63
2018-04-24T13:24:05.236Z,1010.61
2018-04-24T13:25:58.171Z,1010.60
2018-04-24T13:26:58.178Z,1010.54
2018-04-24T13:28:51.118Z,1010.51
2018-04-24T13:29:51.122Z,1010.49
2018-04-24T13:31:44.042Z,1010.41
2018-04-24T13:32:44.071Z,1010.40
2018-04-24T13:34:36.995Z,1010.38
2018-04-24T13:35:37.006Z,1010.38
2018-04-24T13:37:29.915Z,1010.40
2018-04-24T13:38:29.944Z,1010.43
2018-04-24T13:40:22.873Z,1010.41
2018-04-24T13:41:22.885Z,1010.42
2018-04-24T13:43:15.854Z,1010.42
2018-04-24T13:44:15.820Z,1010.42
2018-04-24T13:46:08.750Z,1010.41
2018-04-24T13:47:08.759Z,1010.39
2018-04-24T13:49:01.813Z,1010.34
2018-04-24T13:50:01.699Z,1010.27
2018-04-24T13:51:54.618Z,1010.25
2018-04-24T13:52:54.643Z,1010.23
2018-04-24T13:54:48.161Z,1010.20
2018-04-24T13:55:48.100Z,1010.18
2018-04-24T13:57:41.052Z,1010.20
2018-04-24T13:58:41.035Z,1010.18
2018-04-24T14:00:34.065Z,1010.15
2018-04-24T14:01:34.010Z,1010.17
2018-04-24T14:03:26.888Z,1010.18
2018-04-24T14:04:26.908Z,1010.15
2018-04-24T14:06:20.476Z,1010.14
2018-04-24T14:07:19.903Z,1010.12
2018-04-24T14:09:12.835Z,1010.10
2018-04-24T14:10:12.806Z,1010.07
2018-04-24T14:12:05.733Z,1010.05
2018-04-24T14:13:05.766Z,1010.06
2018-04-24T14:14:58.752Z,1010.01
2018-04-24T14:15:58.701Z,1010.00
2018-04-24T14:17:51.648Z,1009.97
2018-04-24T14:18:51.628Z,1009.96
2018-04-24T14:20:44.641Z,1009.88
2018-04-24T14:21:44.650Z,1009.85
2018-04-24T14:23:37.518Z,1009.84
2018-04-24T14:24:37.536Z,1009.86
2018-04-24T14:26:30.538Z,1009.79
2018-04-24T14:27:30.487Z,1009.83
2018-04-24T14:29:23.449Z,1009.83
2018-04-24T14:30:23.395Z,1009.81
2018-04-24T14:32:16.403Z,1009.79
2018-04-24T14:33:16.344Z,1009.83
2018-04-24T14:35:09.329Z,1009.77
2018-04-24T14:36:09.299Z,1009.77
2018-04-24T14:38:02.242Z,1009.78
2018-04-24T14:39:02.268Z,1009.80
2018-04-24T14:40:55.230Z,1009.74
2018-04-24T14:41:55.215Z,1009.74
2018-04-24T14:43:48.617Z,1009.75
2018-04-24T14:44:48.652Z,1009.75
2018-04-24T14:46:41.616Z,1009.67
2018-04-24T14:47:41.587Z,1009.59
2018-04-24T14:49:34.496Z,1009.54
2018-04-24T14:50:34.503Z,1009.55
2018-04-24T14:52:27.563Z,1009.48
2018-04-24T14:53:27.467Z,1009.44
2018-04-24T14:55:20.422Z,1009.38
2018-04-24T14:56:20.912Z,1009.41
2018-04-24T14:58:14.364Z,1009.39
2018-04-24T14:59:14.334Z,1009.40
2018-04-24T15:01:07.278Z,1009.41
2018-04-24T15:02:07.793Z,1009.40
2018-04-24T15:04:00.198Z,1009.43
2018-04-24T15:05:00.235Z,1009.42
2018-04-24T15:06:53.212Z,1009.37
2018-04-24T15:07:53.179Z,1009.41
2018-04-24T15:09:47.135Z,1009.34
2018-04-24T15:10:46.180Z,1009.28
2018-04-24T15:12:39.123Z,1009.26
2018-04-24T15:13:39.112Z,1009.24
2018-04-24T15:15:33.093Z,1009.26
2018-04-24T15:16:32.105Z,1009.22
2018-04-24T15:18:25.546Z,1009.27
2018-04-24T15:19:25.531Z,1009.25
2018-04-24T15:21:18.974Z,1009.23
2018-04-24T15:22:18.982Z,1009.22
2018-04-24T15:24:11.925Z,1009.20
2018-04-24T15:25:11.938Z,1009.20
2018-04-24T15:27:04.881Z,1009.21
2018-04-24T15:28:04.914Z,1009.22
2018-04-24T15:29:57.819Z,1009.18
2018-04-24T15:30:57.845Z,1009.15
2018-04-24T15:32:50.836Z,1009.12
2018-04-24T15:33:50.833Z,1009.13
2018-04-24T15:35:43.743Z,1009.10
2018-04-24T15:36:43.751Z,1009.09
2018-04-24T15:38:38.221Z,1009.07
2018-04-24T15:39:38.240Z,1009.07
2018-04-24T15:41:31.283Z,1009.07
2018-04-24T15:42:31.235Z,1009.03
2018-04-24T15:44:24.634Z,1009.03
2018-04-24T15:45:24.737Z,1009.05
2018-04-24T15:47:17.606Z,1009.03
2018-04-24T15:48:17.610Z,1009.02
2018-04-24T15:50:10.555Z,1008.97
2018-04-24T15:51:10.563Z,1008.95
2018-04-24T15:53:03.510Z,1008.93
2018-04-24T15:54:03.587Z,1008.98
2018-04-24T15:55:56.463Z,1008.92
2018-04-24T15:56:56.470Z,1008.93
2018-04-24T15:58:49.400Z,1008.96
2018-04-24T15:59:49.427Z,1008.94
2018-04-24T16:01:42.374Z,1008.98
2018-04-24T16:02:42.380Z,1008.93
2018-04-24T16:04:35.306Z,1008.91
2018-04-24T16:05:35.333Z,1008.88
2018-04-24T16:07:28.281Z,1008.92
2018-04-24T16:08:28.286Z,1008.94
2018-04-24T16:10:21.235Z,1008.91
2018-04-24T16:11:21.241Z,1008.90
2018-04-24T16:13:14.190Z,1008.88
2018-04-24T16:14:14.196Z,1008.88
2018-04-24T16:16:07.142Z,1008.99
2018-04-24T16:17:07.160Z,1008.97
2018-04-24T16:19:00.075Z,1008.95
2018-04-24T16:20:00.104Z,1008.94
2018-04-24T16:21:53.048Z,1008.95
2018-04-24T16:22:53.055Z,1008.85
2018-04-24T16:24:45.982Z,1008.76
2018-04-24T16:25:46.009Z,1008.78
2018-04-24T16:27:38.956Z,1008.78
2018-04-24T16:28:38.961Z,1008.77
2018-04-24T16:30:31.891Z,1008.76
2018-04-24T16:31:31.916Z,1008.76
2018-04-24T16:33:24.872Z,1008.75
2018-04-24T16:34:24.871Z,1008.74
2018-04-24T16:36:17.817Z,1008.75
2018-04-24T16:37:17.831Z,1008.73
2018-04-24T16:39:10.750Z,1008.71
2018-04-24T16:40:10.778Z,1008.73
2018-04-24T16:42:03.744Z,1008.70
2018-04-24T16:43:03.751Z,1008.73
2018-04-24T16:44:56.761Z,1008.80
2018-04-24T16:45:56.794Z,1008.83
2018-04-24T16:47:49.734Z,1008.81
2018-04-24T16:48:49.741Z,1008.78
2018-04-24T16:50:42.668Z,1008.80
2018-04-24T16:51:42.694Z,1008.75
2018-04-24T16:53:35.641Z,1008.75
2018-04-24T16:54:35.648Z,1008.79
2018-04-24T16:56:28.595Z,1008.77
2018-04-24T16:57:28.602Z,1008.73
2018-04-24T16:59:21.532Z,1008.72
2018-04-24T17:00:21.564Z,1008.72
2018-04-24T17:02:14.503Z,1008.64
2018-04-24T17:03:14.510Z,1008.61
2018-04-24T17:05:07.438Z,1008.55
2018-04-24T17:06:07.527Z,1008.56
2018-04-24T17:08:00.414Z,1008.47
2018-04-24T17:09:00.419Z,1008.46
2018-04-24T17:10:53.354Z,1008.37
2018-04-24T17:11:53.376Z,1008.40
2018-04-24T17:13:46.321Z,1008.44
2018-04-24T17:14:46.324Z,1008.41
2018-04-24T17:16:39.274Z,1008.40
2018-04-24T17:17:39.279Z,1008.40
2018-04-24T17:19:32.207Z,1008.37
2018-04-24T17:20:32.233Z,1008.34
2018-04-24T17:22:25.179Z,1008.31
2018-04-24T17:23:25.187Z,1008.25
2018-04-24T17:25:18.115Z,1008.27
2018-04-24T17:26:18.141Z,1008.28